sensor_id;sensor_type;location;lat;lon;timestamp;P1;durP1;ratioP1;P2;durP2;ratioP2
22579;SDS011;11456;47.030;15.396;2024-01-30T00:00:03;28.70;;;12.57;;
22579;SDS011;11456;47.030;15.396;2024-01-30T00:02:31;28.90;;;13.63;;
22579;SDS011;11456;47.030;15.396;2024-01-30T00:04:58;24.13;;;12.75;;
22579;SDS011;11456;47.030;15.396;2024-01-30T00:07:25;31.50;;;13.15;;
22579;SDS011;11456;47.030;15.396;2024-01-30T00:09:52;29.73;;;13.00;;
22579;SDS011;11456;47.030;15.396;2024-01-30T00:12:19;34.95;;;13.77;;
22579;SDS011;11456;47.030;15.396;2024-01-30T00:14:45;29.65;;;13.02;;
22579;SDS011;11456;47.030;15.396;2024-01-30T00:17:12;33.22;;;14.07;;
22579;SDS011;11456;47.030;15.396;2024-01-30T00:19:39;30.42;;;13.82;;
22579;SDS011;11456;47.030;15.396;2024-01-30T00:22:06;34.33;;;13.43;;
22579;SDS011;11456;47.030;15.396;2024-01-30T00:24:34;30.77;;;13.27;;
22579;SDS011;11456;47.030;15.396;2024-01-30T00:27:01;27.95;;;12.70;;
22579;SDS011;11456;47.030;15.396;2024-01-30T00:29:27;24.08;;;11.95;;
22579;SDS011;11456;47.030;15.396;2024-01-30T00:31:57;26.73;;;12.43;;
22579;SDS011;11456;47.030;15.396;2024-01-30T00:34:24;31.65;;;13.63;;
22579;SDS011;11456;47.030;15.396;2024-01-30T00:36:51;25.42;;;12.35;;
22579;SDS011;11456;47.030;15.396;2024-01-30T00:39:17;31.70;;;13.10;;
22579;SDS011;11456;47.030;15.396;2024-01-30T00:41:46;34.13;;;12.75;;
22579;SDS011;11456;47.030;15.396;2024-01-30T00:44:12;35.85;;;13.23;;
22579;SDS011;11456;47.030;15.396;2024-01-30T00:46:39;29.13;;;12.60;;
22579;SDS011;11456;47.030;15.396;2024-01-30T00:49:06;25.48;;;12.65;;
22579;SDS011;11456;47.030;15.396;2024-01-30T00:51:33;27.92;;;13.20;;
22579;SDS011;11456;47.030;15.396;2024-01-30T00:54:00;26.48;;;13.38;;
22579;SDS011;11456;47.030;15.396;2024-01-30T00:56:27;29.67;;;12.23;;
22579;SDS011;11456;47.030;15.396;2024-01-30T00:58:53;28.55;;;12.40;;
22579;SDS011;11456;47.030;15.396;2024-01-30T01:01:20;33.10;;;12.57;;
22579;SDS011;11456;47.030;15.396;2024-01-30T01:03:47;29.10;;;12.10;;
22579;SDS011;11456;47.030;15.396;2024-01-30T01:06:15;28.70;;;13.40;;
22579;SDS011;11456;47.030;15.396;2024-01-30T01:08:42;29.95;;;13.02;;
22579;SDS011;11456;47.030;15.396;2024-01-30T01:11:08;42.33;;;12.35;;
22579;SDS011;11456;47.030;15.396;2024-01-30T01:13:36;29.92;;;12.40;;
22579;SDS011;11456;47.030;15.396;2024-01-30T01:16:02;24.20;;;12.43;;
22579;SDS011;11456;47.030;15.396;2024-01-30T01:18:30;31.05;;;13.00;;
22579;SDS011;11456;47.030;15.396;2024-01-30T01:20:57;25.13;;;12.23;;
22579;SDS011;11456;47.030;15.396;2024-01-30T01:23:24;34.08;;;14.20;;
22579;SDS011;11456;47.030;15.396;2024-01-30T01:25:50;35.42;;;12.70;;
22579;SDS011;11456;47.030;15.396;2024-01-30T01:28:17;25.92;;;13.65;;
22579;SDS011;11456;47.030;15.396;2024-01-30T01:30:45;30.02;;;12.95;;
22579;SDS011;11456;47.030;15.396;2024-01-30T01:33:12;31.92;;;13.07;;
22579;SDS011;11456;47.030;15.396;2024-01-30T01:35:41;29.05;;;12.73;;
22579;SDS011;11456;47.030;15.396;2024-01-30T01:38:07;26.75;;;11.82;;
22579;SDS011;11456;47.030;15.396;2024-01-30T01:40:34;23.98;;;12.27;;
22579;SDS011;11456;47.030;15.396;2024-01-30T01:43:03;30.88;;;13.20;;
22579;SDS011;11456;47.030;15.396;2024-01-30T01:45:31;26.50;;;12.43;;
22579;SDS011;11456;47.030;15.396;2024-01-30T01:47:58;25.00;;;12.52;;
22579;SDS011;11456;47.030;15.396;2024-01-30T01:50:25;25.95;;;12.15;;
22579;SDS011;11456;47.030;15.396;2024-01-30T01:52:53;25.83;;;12.05;;
22579;SDS011;11456;47.030;15.396;2024-01-30T01:55:21;32.28;;;13.02;;
22579;SDS011;11456;47.030;15.396;2024-01-30T01:57:51;30.92;;;13.18;;
22579;SDS011;11456;47.030;15.396;2024-01-30T02:00:19;23.42;;;11.95;;
22579;SDS011;11456;47.030;15.396;2024-01-30T02:02:46;31.17;;;12.98;;
22579;SDS011;11456;47.030;15.396;2024-01-30T02:05:14;27.33;;;11.90;;
22579;SDS011;11456;47.030;15.396;2024-01-30T02:07:42;27.83;;;13.05;;
22579;SDS011;11456;47.030;15.396;2024-01-30T02:10:10;29.40;;;12.70;;
22579;SDS011;11456;47.030;15.396;2024-01-30T02:12:37;25.50;;;11.75;;
22579;SDS011;11456;47.030;15.396;2024-01-30T02:15:05;24.83;;;11.05;;
22579;SDS011;11456;47.030;15.396;2024-01-30T02:17:33;28.25;;;11.50;;
22579;SDS011;11456;47.030;15.396;2024-01-30T02:20:00;26.45;;;11.85;;
22579;SDS011;11456;47.030;15.396;2024-01-30T02:22:28;22.25;;;11.45;;
22579;SDS011;11456;47.030;15.396;2024-01-30T02:24:55;27.98;;;12.05;;
22579;SDS011;11456;47.030;15.396;2024-01-30T02:27:22;24.15;;;11.55;;
22579;SDS011;11456;47.030;15.396;2024-01-30T02:29:49;27.02;;;12.93;;
22579;SDS011;11456;47.030;15.396;2024-01-30T02:32:16;27.88;;;11.93;;
22579;SDS011;11456;47.030;15.396;2024-01-30T02:34:42;30.60;;;12.38;;
22579;SDS011;11456;47.030;15.396;2024-01-30T02:37:09;27.70;;;12.27;;
22579;SDS011;11456;47.030;15.396;2024-01-30T02:39:36;29.80;;;13.07;;
22579;SDS011;11456;47.030;15.396;2024-01-30T02:42:03;30.10;;;12.75;;
22579;SDS011;11456;47.030;15.396;2024-01-30T02:44:30;25.98;;;12.68;;
22579;SDS011;11456;47.030;15.396;2024-01-30T02:46:56;29.40;;;12.63;;
22579;SDS011;11456;47.030;15.396;2024-01-30T02:49:23;28.20;;;12.88;;
22579;SDS011;11456;47.030;15.396;2024-01-30T02:51:51;30.48;;;13.18;;
22579;SDS011;11456;47.030;15.396;2024-01-30T02:54:18;32.92;;;13.40;;
22579;SDS011;11456;47.030;15.396;2024-01-30T02:56:45;34.90;;;14.10;;
22579;SDS011;11456;47.030;15.396;2024-01-30T02:59:11;34.45;;;14.98;;
22579;SDS011;11456;47.030;15.396;2024-01-30T03:01:44;39.38;;;15.05;;
22579;SDS011;11456;47.030;15.396;2024-01-30T03:04:11;33.90;;;14.15;;
22579;SDS011;11456;47.030;15.396;2024-01-30T03:06:44;35.63;;;15.82;;
22579;SDS011;11456;47.030;15.396;2024-01-30T03:09:11;32.85;;;15.18;;
22579;SDS011;11456;47.030;15.396;2024-01-30T03:11:38;34.72;;;14.48;;
22579;SDS011;11456;47.030;15.396;2024-01-30T03:14:04;37.33;;;14.95;;
22579;SDS011;11456;47.030;15.396;2024-01-30T03:16:31;33.10;;;14.40;;
22579;SDS011;11456;47.030;15.396;2024-01-30T03:18:58;32.15;;;14.13;;
22579;SDS011;11456;47.030;15.396;2024-01-30T03:21:25;31.35;;;13.73;;
22579;SDS011;11456;47.030;15.396;2024-01-30T03:23:52;33.40;;;15.05;;
22579;SDS011;11456;47.030;15.396;2024-01-30T03:26:19;35.78;;;14.40;;
22579;SDS011;11456;47.030;15.396;2024-01-30T03:28:46;33.58;;;14.23;;
22579;SDS011;11456;47.030;15.396;2024-01-30T03:31:14;36.05;;;14.45;;
22579;SDS011;11456;47.030;15.396;2024-01-30T03:33:42;29.98;;;14.48;;
22579;SDS011;11456;47.030;15.396;2024-01-30T03:36:09;31.88;;;14.35;;
22579;SDS011;11456;47.030;15.396;2024-01-30T03:38:36;31.23;;;13.43;;
22579;SDS011;11456;47.030;15.396;2024-01-30T03:41:03;32.83;;;13.75;;
22579;SDS011;11456;47.030;15.396;2024-01-30T03:43:29;29.60;;;13.18;;
22579;SDS011;11456;47.030;15.396;2024-01-30T03:45:56;34.03;;;13.73;;
22579;SDS011;11456;47.030;15.396;2024-01-30T03:48:23;25.38;;;12.32;;
22579;SDS011;11456;47.030;15.396;2024-01-30T03:50:50;33.88;;;14.10;;
22579;SDS011;11456;47.030;15.396;2024-01-30T03:53:17;33.38;;;12.73;;
22579;SDS011;11456;47.030;15.396;2024-01-30T03:55:43;26.95;;;13.02;;
22579;SDS011;11456;47.030;15.396;2024-01-30T03:58:10;33.53;;;12.88;;
22579;SDS011;11456;47.030;15.396;2024-01-30T04:00:37;26.77;;;12.45;;
22579;SDS011;11456;47.030;15.396;2024-01-30T04:03:04;30.63;;;12.70;;
22579;SDS011;11456;47.030;15.396;2024-01-30T04:05:30;27.00;;;12.45;;
22579;SDS011;11456;47.030;15.396;2024-01-30T04:07:57;29.42;;;12.38;;
22579;SDS011;11456;47.030;15.396;2024-01-30T04:10:24;23.30;;;12.07;;
22579;SDS011;11456;47.030;15.396;2024-01-30T04:12:51;24.95;;;12.35;;
22579;SDS011;11456;47.030;15.396;2024-01-30T04:15:18;22.80;;;12.10;;
22579;SDS011;11456;47.030;15.396;2024-01-30T04:17:45;28.35;;;12.13;;
22579;SDS011;11456;47.030;15.396;2024-01-30T04:20:15;24.35;;;11.75;;
22579;SDS011;11456;47.030;15.396;2024-01-30T04:22:43;28.73;;;11.95;;
22579;SDS011;11456;47.030;15.396;2024-01-30T04:25:11;29.55;;;10.98;;
22579;SDS011;11456;47.030;15.396;2024-01-30T04:27:39;27.15;;;11.60;;
22579;SDS011;11456;47.030;15.396;2024-01-30T04:30:06;22.52;;;11.02;;
22579;SDS011;11456;47.030;15.396;2024-01-30T04:32:33;26.23;;;10.60;;
22579;SDS011;11456;47.030;15.396;2024-01-30T04:35:00;27.30;;;10.88;;
22579;SDS011;11456;47.030;15.396;2024-01-30T04:37:27;29.13;;;11.80;;
22579;SDS011;11456;47.030;15.396;2024-01-30T04:39:54;25.20;;;11.40;;
22579;SDS011;11456;47.030;15.396;2024-01-30T04:42:20;29.67;;;11.45;;
22579;SDS011;11456;47.030;15.396;2024-01-30T04:44:47;25.98;;;10.35;;
22579;SDS011;11456;47.030;15.396;2024-01-30T04:47:14;24.95;;;11.45;;
22579;SDS011;11456;47.030;15.396;2024-01-30T04:49:41;28.17;;;11.15;;
22579;SDS011;11456;47.030;15.396;2024-01-30T04:52:08;61.35;;;21.98;;
22579;SDS011;11456;47.030;15.396;2024-01-30T04:54:35;159.35;;;50.40;;
22579;SDS011;11456;47.030;15.396;2024-01-30T04:57:02;45.88;;;17.33;;
22579;SDS011;11456;47.030;15.396;2024-01-30T04:59:29;58.72;;;20.58;;
22579;SDS011;11456;47.030;15.396;2024-01-30T05:01:56;30.20;;;12.55;;
22579;SDS011;11456;47.030;15.396;2024-01-30T05:04:23;26.27;;;12.73;;
22579;SDS011;11456;47.030;15.396;2024-01-30T05:06:49;31.08;;;12.75;;
22579;SDS011;11456;47.030;15.396;2024-01-30T05:09:16;29.33;;;12.25;;
22579;SDS011;11456;47.030;15.396;2024-01-30T05:11:43;24.52;;;12.50;;
22579;SDS011;11456;47.030;15.396;2024-01-30T05:14:10;27.25;;;11.80;;
22579;SDS011;11456;47.030;15.396;2024-01-30T05:16:38;23.27;;;11.80;;
22579;SDS011;11456;47.030;15.396;2024-01-30T05:19:05;28.25;;;11.68;;
22579;SDS011;11456;47.030;15.396;2024-01-30T05:21:32;27.65;;;12.02;;
22579;SDS011;11456;47.030;15.396;2024-01-30T05:23:58;29.23;;;12.30;;
22579;SDS011;11456;47.030;15.396;2024-01-30T05:26:25;25.20;;;11.10;;
22579;SDS011;11456;47.030;15.396;2024-01-30T05:28:52;26.45;;;12.07;;
22579;SDS011;11456;47.030;15.396;2024-01-30T05:31:19;27.48;;;10.80;;
22579;SDS011;11456;47.030;15.396;2024-01-30T05:33:47;31.02;;;11.73;;
22579;SDS011;11456;47.030;15.396;2024-01-30T05:36:14;30.75;;;13.25;;
22579;SDS011;11456;47.030;15.396;2024-01-30T05:38:41;30.77;;;12.00;;
22579;SDS011;11456;47.030;15.396;2024-01-30T05:41:08;32.58;;;12.93;;
22579;SDS011;11456;47.030;15.396;2024-01-30T05:43:35;31.55;;;13.07;;
22579;SDS011;11456;47.030;15.396;2024-01-30T05:46:02;39.83;;;12.73;;
22579;SDS011;11456;47.030;15.396;2024-01-30T05:48:28;33.05;;;11.85;;
22579;SDS011;11456;47.030;15.396;2024-01-30T05:50:55;33.88;;;12.07;;
22579;SDS011;11456;47.030;15.396;2024-01-30T05:53:23;27.13;;;11.50;;
22579;SDS011;11456;47.030;15.396;2024-01-30T05:55:49;25.63;;;11.48;;
22579;SDS011;11456;47.030;15.396;2024-01-30T05:58:16;34.97;;;11.68;;
22579;SDS011;11456;47.030;15.396;2024-01-30T06:00:43;31.50;;;12.00;;
22579;SDS011;11456;47.030;15.396;2024-01-30T06:03:10;31.27;;;11.80;;
22579;SDS011;11456;47.030;15.396;2024-01-30T06:05:37;29.58;;;12.20;;
22579;SDS011;11456;47.030;15.396;2024-01-30T06:08:04;42.60;;;14.02;;
22579;SDS011;11456;47.030;15.396;2024-01-30T06:10:31;30.27;;;13.07;;
22579;SDS011;11456;47.030;15.396;2024-01-30T06:12:59;50.55;;;18.70;;
22579;SDS011;11456;47.030;15.396;2024-01-30T06:15:26;39.80;;;16.20;;
22579;SDS011;11456;47.030;15.396;2024-01-30T06:17:52;46.70;;;19.48;;
22579;SDS011;11456;47.030;15.396;2024-01-30T06:20:19;46.95;;;18.08;;
22579;SDS011;11456;47.030;15.396;2024-01-30T06:22:46;50.63;;;18.92;;
22579;SDS011;11456;47.030;15.396;2024-01-30T06:25:13;56.67;;;22.30;;
22579;SDS011;11456;47.030;15.396;2024-01-30T06:27:40;48.72;;;19.52;;
22579;SDS011;11456;47.030;15.396;2024-01-30T06:30:07;61.22;;;23.33;;
22579;SDS011;11456;47.030;15.396;2024-01-30T06:32:35;63.92;;;23.52;;
22579;SDS011;11456;47.030;15.396;2024-01-30T06:35:02;60.83;;;24.77;;
22579;SDS011;11456;47.030;15.396;2024-01-30T06:37:29;65.75;;;24.48;;
22579;SDS011;11456;47.030;15.396;2024-01-30T06:39:56;65.65;;;23.80;;
22579;SDS011;11456;47.030;15.396;2024-01-30T06:42:23;67.55;;;24.60;;
22579;SDS011;11456;47.030;15.396;2024-01-30T06:44:50;62.45;;;22.73;;
22579;SDS011;11456;47.030;15.396;2024-01-30T06:47:17;56.05;;;22.60;;
22579;SDS011;11456;47.030;15.396;2024-01-30T06:49:44;54.72;;;21.45;;
22579;SDS011;11456;47.030;15.396;2024-01-30T06:52:11;51.88;;;20.58;;
22579;SDS011;11456;47.030;15.396;2024-01-30T06:54:38;44.78;;;19.25;;
22579;SDS011;11456;47.030;15.396;2024-01-30T06:57:06;48.95;;;19.17;;
22579;SDS011;11456;47.030;15.396;2024-01-30T06:59:38;38.67;;;16.75;;
22579;SDS011;11456;47.030;15.396;2024-01-30T07:02:09;42.10;;;16.50;;
22579;SDS011;11456;47.030;15.396;2024-01-30T07:04:36;38.88;;;16.67;;
22579;SDS011;11456;47.030;15.396;2024-01-30T07:07:05;38.42;;;17.13;;
22579;SDS011;11456;47.030;15.396;2024-01-30T07:09:32;37.40;;;15.50;;
22579;SDS011;11456;47.030;15.396;2024-01-30T07:12:00;35.35;;;16.42;;
22579;SDS011;11456;47.030;15.396;2024-01-30T07:14:27;38.88;;;15.73;;
22579;SDS011;11456;47.030;15.396;2024-01-30T07:16:53;36.00;;;14.77;;
22579;SDS011;11456;47.030;15.396;2024-01-30T07:19:20;38.72;;;14.88;;
22579;SDS011;11456;47.030;15.396;2024-01-30T07:21:47;42.78;;;15.35;;
22579;SDS011;11456;47.030;15.396;2024-01-30T07:24:14;37.70;;;15.43;;
22579;SDS011;11456;47.030;15.396;2024-01-30T07:26:40;38.10;;;16.10;;
22579;SDS011;11456;47.030;15.396;2024-01-30T07:29:07;41.92;;;16.70;;
22579;SDS011;11456;47.030;15.396;2024-01-30T07:31:34;32.50;;;14.40;;
22579;SDS011;11456;47.030;15.396;2024-01-30T07:34:01;30.70;;;14.45;;
22579;SDS011;11456;47.030;15.396;2024-01-30T07:36:28;29.27;;;13.73;;
22579;SDS011;11456;47.030;15.396;2024-01-30T07:38:55;32.60;;;15.35;;
22579;SDS011;11456;47.030;15.396;2024-01-30T07:41:22;35.67;;;13.82;;
22579;SDS011;11456;47.030;15.396;2024-01-30T07:43:51;39.90;;;16.42;;
22579;SDS011;11456;47.030;15.396;2024-01-30T07:46:19;36.95;;;16.20;;
22579;SDS011;11456;47.030;15.396;2024-01-30T07:48:46;36.33;;;16.27;;
22579;SDS011;11456;47.030;15.396;2024-01-30T07:51:14;49.25;;;17.63;;
22579;SDS011;11456;47.030;15.396;2024-01-30T07:53:41;42.70;;;19.77;;
22579;SDS011;11456;47.030;15.396;2024-01-30T07:56:08;41.08;;;19.55;;
22579;SDS011;11456;47.030;15.396;2024-01-30T07:58:35;33.58;;;15.68;;
22579;SDS011;11456;47.030;15.396;2024-01-30T08:01:01;36.38;;;15.80;;
22579;SDS011;11456;47.030;15.396;2024-01-30T08:03:29;35.80;;;15.90;;
22579;SDS011;11456;47.030;15.396;2024-01-30T08:05:56;48.08;;;17.55;;
22579;SDS011;11456;47.030;15.396;2024-01-30T08:08:22;38.17;;;15.93;;
22579;SDS011;11456;47.030;15.396;2024-01-30T08:10:49;39.05;;;17.20;;
22579;SDS011;11456;47.030;15.396;2024-01-30T08:13:16;39.78;;;17.05;;
22579;SDS011;11456;47.030;15.396;2024-01-30T08:15:43;37.25;;;17.98;;
22579;SDS011;11456;47.030;15.396;2024-01-30T08:18:10;42.15;;;17.17;;
22579;SDS011;11456;47.030;15.396;2024-01-30T08:20:36;35.22;;;17.45;;
22579;SDS011;11456;47.030;15.396;2024-01-30T08:23:03;39.45;;;16.38;;
22579;SDS011;11456;47.030;15.396;2024-01-30T08:25:30;37.13;;;16.52;;
22579;SDS011;11456;47.030;15.396;2024-01-30T08:27:57;36.47;;;15.88;;
22579;SDS011;11456;47.030;15.396;2024-01-30T08:30:24;33.92;;;16.00;;
22579;SDS011;11456;47.030;15.396;2024-01-30T08:32:51;34.20;;;14.25;;
22579;SDS011;11456;47.030;15.396;2024-01-30T08:35:18;40.72;;;14.40;;
22579;SDS011;11456;47.030;15.396;2024-01-30T08:37:45;42.97;;;15.88;;
22579;SDS011;11456;47.030;15.396;2024-01-30T08:40:12;40.90;;;15.48;;
22579;SDS011;11456;47.030;15.396;2024-01-30T08:42:39;38.75;;;15.88;;
22579;SDS011;11456;47.030;15.396;2024-01-30T08:45:05;35.08;;;14.25;;
22579;SDS011;11456;47.030;15.396;2024-01-30T08:47:33;37.08;;;16.33;;
22579;SDS011;11456;47.030;15.396;2024-01-30T08:50:00;32.88;;;12.18;;
22579;SDS011;11456;47.030;15.396;2024-01-30T08:52:27;32.40;;;14.02;;
22579;SDS011;11456;47.030;15.396;2024-01-30T08:54:54;39.83;;;15.48;;
22579;SDS011;11456;47.030;15.396;2024-01-30T08:57:21;39.20;;;14.55;;
22579;SDS011;11456;47.030;15.396;2024-01-30T08:59:47;29.02;;;13.00;;
22579;SDS011;11456;47.030;15.396;2024-01-30T09:02:14;26.25;;;12.98;;
22579;SDS011;11456;47.030;15.396;2024-01-30T09:04:42;31.95;;;14.10;;
22579;SDS011;11456;47.030;15.396;2024-01-30T09:07:10;40.22;;;14.82;;
22579;SDS011;11456;47.030;15.396;2024-01-30T09:09:37;34.58;;;13.70;;
22579;SDS011;11456;47.030;15.396;2024-01-30T09:12:06;35.22;;;13.60;;
22579;SDS011;11456;47.030;15.396;2024-01-30T09:14:36;29.17;;;13.65;;
22579;SDS011;11456;47.030;15.396;2024-01-30T09:17:03;32.75;;;14.15;;
22579;SDS011;11456;47.030;15.396;2024-01-30T09:19:30;37.45;;;16.25;;
22579;SDS011;11456;47.030;15.396;2024-01-30T09:21:57;37.70;;;15.07;;
22579;SDS011;11456;47.030;15.396;2024-01-30T09:24:25;32.03;;;14.27;;
22579;SDS011;11456;47.030;15.396;2024-01-30T09:26:52;40.63;;;16.65;;
22579;SDS011;11456;47.030;15.396;2024-01-30T09:29:19;41.63;;;15.40;;
22579;SDS011;11456;47.030;15.396;2024-01-30T09:31:46;37.78;;;15.68;;
22579;SDS011;11456;47.030;15.396;2024-01-30T09:34:13;43.40;;;14.43;;
22579;SDS011;11456;47.030;15.396;2024-01-30T09:36:40;44.65;;;14.77;;
22579;SDS011;11456;47.030;15.396;2024-01-30T09:39:07;36.47;;;13.77;;
22579;SDS011;11456;47.030;15.396;2024-01-30T09:41:34;59.40;;;15.02;;
22579;SDS011;11456;47.030;15.396;2024-01-30T09:44:11;47.97;;;14.68;;
22579;SDS011;11456;47.030;15.396;2024-01-30T09:46:38;28.00;;;12.65;;
22579;SDS011;11456;47.030;15.396;2024-01-30T09:49:06;37.22;;;12.32;;
22579;SDS011;11456;47.030;15.396;2024-01-30T09:51:34;33.58;;;11.98;;
22579;SDS011;11456;47.030;15.396;2024-01-30T09:54:02;39.42;;;13.23;;
22579;SDS011;11456;47.030;15.396;2024-01-30T09:56:29;45.45;;;14.20;;
22579;SDS011;11456;47.030;15.396;2024-01-30T09:58:56;33.88;;;12.45;;
22579;SDS011;11456;47.030;15.396;2024-01-30T10:01:23;38.42;;;11.93;;
22579;SDS011;11456;47.030;15.396;2024-01-30T10:03:50;34.78;;;11.77;;
22579;SDS011;11456;47.030;15.396;2024-01-30T10:06:19;25.92;;;11.20;;
22579;SDS011;11456;47.030;15.396;2024-01-30T10:08:49;38.58;;;13.35;;
22579;SDS011;11456;47.030;15.396;2024-01-30T10:11:16;40.05;;;16.33;;
22579;SDS011;11456;47.030;15.396;2024-01-30T10:13:42;37.85;;;13.70;;
22579;SDS011;11456;47.030;15.396;2024-01-30T10:16:09;36.75;;;13.63;;
22579;SDS011;11456;47.030;15.396;2024-01-30T10:18:36;36.22;;;14.05;;
22579;SDS011;11456;47.030;15.396;2024-01-30T10:21:03;42.97;;;14.18;;
22579;SDS011;11456;47.030;15.396;2024-01-30T10:23:30;26.42;;;12.10;;
22579;SDS011;11456;47.030;15.396;2024-01-30T10:26:02;31.53;;;10.87;;
22579;SDS011;11456;47.030;15.396;2024-01-30T10:28:30;34.67;;;11.15;;
22579;SDS011;11456;47.030;15.396;2024-01-30T10:30:58;20.50;;;10.35;;
22579;SDS011;11456;47.030;15.396;2024-01-30T10:33:31;22.55;;;9.82;;
22579;SDS011;11456;47.030;15.396;2024-01-30T10:36:01;25.02;;;9.02;;
22579;SDS011;11456;47.030;15.396;2024-01-30T10:38:31;27.85;;;10.65;;
22579;SDS011;11456;47.030;15.396;2024-01-30T10:41:01;23.02;;;9.55;;
22579;SDS011;11456;47.030;15.396;2024-01-30T10:43:32;28.15;;;9.93;;
22579;SDS011;11456;47.030;15.396;2024-01-30T10:46:17;26.42;;;9.05;;
22579;SDS011;11456;47.030;15.396;2024-01-30T10:48:50;29.63;;;10.93;;
22579;SDS011;11456;47.030;15.396;2024-01-30T10:51:28;20.58;;;10.98;;
22579;SDS011;11456;47.030;15.396;2024-01-30T10:53:55;28.73;;;11.38;;
22579;SDS011;11456;47.030;15.396;2024-01-30T10:56:24;44.20;;;10.68;;
22579;SDS011;11456;47.030;15.396;2024-01-30T10:58:52;25.17;;;9.98;;
22579;SDS011;11456;47.030;15.396;2024-01-30T11:01:20;22.98;;;8.93;;
22579;SDS011;11456;47.030;15.396;2024-01-30T11:03:51;25.57;;;8.97;;
22579;SDS011;11456;47.030;15.396;2024-01-30T11:06:22;25.67;;;9.80;;
22579;SDS011;11456;47.030;15.396;2024-01-30T11:09:11;24.33;;;8.88;;
22579;SDS011;11456;47.030;15.396;2024-01-30T11:11:51;22.85;;;8.27;;
22579;SDS011;11456;47.030;15.396;2024-01-30T11:14:24;21.85;;;9.70;;
22579;SDS011;11456;47.030;15.396;2024-01-30T11:16:52;21.67;;;9.18;;
22579;SDS011;11456;47.030;15.396;2024-01-30T11:19:23;23.30;;;9.18;;
22579;SDS011;11456;47.030;15.396;2024-01-30T11:21:52;28.67;;;9.73;;
22579;SDS011;11456;47.030;15.396;2024-01-30T11:24:20;32.00;;;10.65;;
22579;SDS011;11456;47.030;15.396;2024-01-30T11:26:55;29.70;;;9.75;;
22579;SDS011;11456;47.030;15.396;2024-01-30T11:29:27;26.75;;;9.23;;
22579;SDS011;11456;47.030;15.396;2024-01-30T11:31:55;26.70;;;8.55;;
22579;SDS011;11456;47.030;15.396;2024-01-30T11:34:22;22.40;;;8.10;;
22579;SDS011;11456;47.030;15.396;2024-01-30T11:36:57;31.80;;;9.25;;
22579;SDS011;11456;47.030;15.396;2024-01-30T11:39:25;19.45;;;8.27;;
22579;SDS011;11456;47.030;15.396;2024-01-30T11:41:53;21.95;;;8.55;;
22579;SDS011;11456;47.030;15.396;2024-01-30T11:44:20;29.25;;;9.60;;
22579;SDS011;11456;47.030;15.396;2024-01-30T11:46:48;34.38;;;9.85;;
22579;SDS011;11456;47.030;15.396;2024-01-30T11:49:16;20.38;;;9.80;;
22579;SDS011;11456;47.030;15.396;2024-01-30T11:51:47;22.98;;;9.38;;
22579;SDS011;11456;47.030;15.396;2024-01-30T11:54:15;27.08;;;9.40;;
22579;SDS011;11456;47.030;15.396;2024-01-30T11:56:43;26.75;;;11.10;;
22579;SDS011;11456;47.030;15.396;2024-01-30T11:59:10;32.70;;;10.10;;
22579;SDS011;11456;47.030;15.396;2024-01-30T12:01:37;24.30;;;9.90;;
22579;SDS011;11456;47.030;15.396;2024-01-30T12:04:04;22.25;;;9.98;;
22579;SDS011;11456;47.030;15.396;2024-01-30T12:09:03;28.17;;;11.05;;
22579;SDS011;11456;47.030;15.396;2024-01-30T12:11:30;22.98;;;10.98;;
22579;SDS011;11456;47.030;15.396;2024-01-30T12:13:57;28.63;;;10.07;;
22579;SDS011;11456;47.030;15.396;2024-01-30T12:16:24;28.50;;;10.32;;
22579;SDS011;11456;47.030;15.396;2024-01-30T12:18:58;29.50;;;11.75;;
22579;SDS011;11456;47.030;15.396;2024-01-30T12:21:26;25.27;;;10.40;;
22579;SDS011;11456;47.030;15.396;2024-01-30T12:23:53;22.95;;;10.23;;
22579;SDS011;11456;47.030;15.396;2024-01-30T12:26:20;23.95;;;10.70;;
22579;SDS011;11456;47.030;15.396;2024-01-30T12:28:49;33.97;;;12.05;;
22579;SDS011;11456;47.030;15.396;2024-01-30T12:31:17;26.80;;;11.70;;
22579;SDS011;11456;47.030;15.396;2024-01-30T12:33:43;34.58;;;11.88;;
22579;SDS011;11456;47.030;15.396;2024-01-30T12:36:11;31.08;;;12.30;;
22579;SDS011;11456;47.030;15.396;2024-01-30T12:38:38;23.92;;;12.77;;
22579;SDS011;11456;47.030;15.396;2024-01-30T12:41:06;28.63;;;12.40;;
22579;SDS011;11456;47.030;15.396;2024-01-30T12:43:36;27.85;;;12.15;;
22579;SDS011;11456;47.030;15.396;2024-01-30T12:46:05;28.85;;;12.80;;
22579;SDS011;11456;47.030;15.396;2024-01-30T12:48:36;32.45;;;13.02;;
22579;SDS011;11456;47.030;15.396;2024-01-30T12:51:05;41.75;;;15.85;;
22579;SDS011;11456;47.030;15.396;2024-01-30T12:53:34;29.27;;;14.23;;
22579;SDS011;11456;47.030;15.396;2024-01-30T12:56:03;31.13;;;13.70;;
22579;SDS011;11456;47.030;15.396;2024-01-30T12:58:31;33.97;;;14.02;;
22579;SDS011;11456;47.030;15.396;2024-01-30T13:00:59;26.42;;;12.95;;
22579;SDS011;11456;47.030;15.396;2024-01-30T13:03:27;27.45;;;12.55;;
22579;SDS011;11456;47.030;15.396;2024-01-30T13:05:56;27.05;;;13.15;;
22579;SDS011;11456;47.030;15.396;2024-01-30T13:08:25;25.60;;;12.40;;
22579;SDS011;11456;47.030;15.396;2024-01-30T13:10:54;23.67;;;11.13;;
22579;SDS011;11456;47.030;15.396;2024-01-30T13:13:23;30.20;;;13.50;;
22579;SDS011;11456;47.030;15.396;2024-01-30T13:15:52;29.02;;;11.40;;
22579;SDS011;11456;47.030;15.396;2024-01-30T13:18:22;26.95;;;11.70;;
22579;SDS011;11456;47.030;15.396;2024-01-30T13:20:51;28.33;;;12.23;;
22579;SDS011;11456;47.030;15.396;2024-01-30T13:23:20;25.08;;;11.70;;
22579;SDS011;11456;47.030;15.396;2024-01-30T13:25:49;24.98;;;13.10;;
22579;SDS011;11456;47.030;15.396;2024-01-30T13:28:18;36.50;;;13.48;;
22579;SDS011;11456;47.030;15.396;2024-01-30T13:30:47;38.97;;;12.93;;
22579;SDS011;11456;47.030;15.396;2024-01-30T13:33:16;35.15;;;13.77;;
22579;SDS011;11456;47.030;15.396;2024-01-30T13:35:45;30.45;;;12.88;;
22579;SDS011;11456;47.030;15.396;2024-01-30T13:38:14;28.95;;;13.77;;
22579;SDS011;11456;47.030;15.396;2024-01-30T13:40:43;31.85;;;13.88;;
22579;SDS011;11456;47.030;15.396;2024-01-30T13:43:13;39.22;;;14.13;;
22579;SDS011;11456;47.030;15.396;2024-01-30T13:45:42;30.58;;;14.05;;
22579;SDS011;11456;47.030;15.396;2024-01-30T13:48:12;35.20;;;14.38;;
22579;SDS011;11456;47.030;15.396;2024-01-30T13:50:41;33.80;;;14.90;;
22579;SDS011;11456;47.030;15.396;2024-01-30T13:53:10;28.15;;;13.20;;
22579;SDS011;11456;47.030;15.396;2024-01-30T13:55:40;26.92;;;13.63;;
22579;SDS011;11456;47.030;15.396;2024-01-30T13:58:10;25.65;;;12.57;;
22579;SDS011;11456;47.030;15.396;2024-01-30T14:00:39;34.90;;;13.90;;
22579;SDS011;11456;47.030;15.396;2024-01-30T14:03:08;29.50;;;12.95;;
22579;SDS011;11456;47.030;15.396;2024-01-30T14:05:37;35.65;;;12.98;;
22579;SDS011;11456;47.030;15.396;2024-01-30T14:08:06;26.05;;;12.48;;
22579;SDS011;11456;47.030;15.396;2024-01-30T14:10:37;25.58;;;11.95;;
22579;SDS011;11456;47.030;15.396;2024-01-30T14:13:06;20.63;;;12.30;;
22579;SDS011;11456;47.030;15.396;2024-01-30T14:15:35;28.60;;;12.45;;